createdAt,value
2023-10-23T00:00:00.179Z,10.63
2023-10-23T00:05:00.262Z,10.69
2023-10-23T00:10:00.079Z,10.63
2023-10-23T00:15:00.073Z,10.5
2023-10-23T00:20:00.139Z,10.5
2023-10-23T00:25:00.081Z,10.5
2023-10-23T00:30:00.071Z,10.5
2023-10-23T00:35:00.093Z,10.56
2023-10-23T00:40:00.101Z,10.56
2023-10-23T00:45:00.083Z,10.63
2023-10-23T00:50:00.114Z,10.63
2023-10-23T00:55:00.102Z,10.63
2023-10-23T01:00:00.170Z,10.69
2023-10-23T01:05:00.076Z,10.63
2023-10-23T01:10:00.085Z,10.56
2023-10-23T01:15:00.084Z,10.38
2023-10-23T01:20:01.123Z,10.19
2023-10-23T01:25:00.113Z,10.06
2023-10-23T01:30:00.099Z,10.06
2023-10-23T01:35:00.093Z,10
2023-10-23T01:40:00.116Z,10.06
2023-10-23T01:45:00.114Z,10.06
2023-10-23T01:50:00.100Z,10.06
2023-10-23T01:55:00.134Z,10.13
2023-10-23T02:00:00.219Z,10.13
2023-10-23T02:05:00.085Z,10.19
2023-10-23T02:10:15.586Z,10.25
2023-10-23T02:15:00.086Z,10.31
2023-10-23T02:20:00.116Z,10.38
2023-10-23T02:25:00.122Z,10.38
2023-10-23T02:30:00.080Z,10.44
2023-10-23T02:35:00.103Z,10.44
2023-10-23T02:40:00.300Z,10.44
2023-10-23T02:45:00.090Z,10.38
2023-10-23T02:50:00.094Z,10.38
2023-10-23T02:55:00.144Z,10.31
2023-10-23T03:00:00.196Z,10.19
2023-10-23T03:05:00.100Z,10.06
2023-10-23T03:10:00.114Z,10
2023-10-23T03:15:00.091Z,9.94
2023-10-23T03:20:00.110Z,10
2023-10-23T03:25:00.122Z,10
2023-10-23T03:30:00.114Z,10
2023-10-23T03:35:00.093Z,10.13
2023-10-23T03:40:00.142Z,10.19
2023-10-23T03:45:00.092Z,10.25
2023-10-23T03:50:00.078Z,10.25
2023-10-23T03:55:00.155Z,10.31
2023-10-23T04:00:00.188Z,10.31
2023-10-23T04:05:00.081Z,10.31
2023-10-23T04:10:00.166Z,10.38
2023-10-23T04:15:00.083Z,10.38
2023-10-23T04:20:00.103Z,10.44
2023-10-23T04:25:00.161Z,10.44
2023-10-23T04:30:00.089Z,10.5
2023-10-23T04:35:00.087Z,10.5
2023-10-23T04:40:00.291Z,10.5
2023-10-23T04:45:00.091Z,10.5
2023-10-23T04:50:00.108Z,10.5
2023-10-23T04:55:00.172Z,10.5
2023-10-23T05:00:00.150Z,10.44
2023-10-23T05:05:00.135Z,10.44
2023-10-23T05:10:00.210Z,10.44
2023-10-23T05:15:00.106Z,10.44
2023-10-23T05:20:00.133Z,10.44
2023-10-23T05:25:00.154Z,10.38
2023-10-23T05:30:00.112Z,10.44
2023-10-23T05:35:00.094Z,10.38
2023-10-23T05:40:00.246Z,10.38
2023-10-23T05:45:00.099Z,10.38
2023-10-23T05:50:00.118Z,10.38
2023-10-23T05:55:01.886Z,10.38
2023-10-23T06:00:00.118Z,10.38
2023-10-23T06:05:00.087Z,10.38
2023-10-23T06:10:00.200Z,10.38
2023-10-23T06:15:00.185Z,10.38
2023-10-23T06:20:00.106Z,10.38
2023-10-23T06:25:00.109Z,10.38
2023-10-23T06:30:00.086Z,10.31
2023-10-23T06:35:00.098Z,10.38
2023-10-23T06:40:00.121Z,10.44
2023-10-23T06:45:00.124Z,10.44
2023-10-23T06:50:00.066Z,10.38
2023-10-23T06:55:00.068Z,10.38
2023-10-23T07:00:00.135Z,10.44
2023-10-23T07:05:00.073Z,10.44
2023-10-23T07:10:00.535Z,10.38
2023-10-23T07:15:00.105Z,10.31
2023-10-23T07:20:00.112Z,10.19
2023-10-23T07:25:01.101Z,10.19
2023-10-23T07:30:00.112Z,10.13
2023-10-23T07:35:00.098Z,10.25
2023-10-23T07:40:00.127Z,10.31
2023-10-23T07:45:00.071Z,10.38
2023-10-23T07:50:00.071Z,10.44
2023-10-23T07:55:00.110Z,10.56
2023-10-23T08:00:00.202Z,10.69
2023-10-23T08:05:00.096Z,10.81
2023-10-23T08:10:00.099Z,10.88
2023-10-23T08:15:00.068Z,11.06
2023-10-23T08:20:00.150Z,11.19
2023-10-23T08:25:00.104Z,11.31
2023-10-23T08:30:00.086Z,11.5
2023-10-23T08:35:00.061Z,11.69
2023-10-23T08:40:00.116Z,11.94
2023-10-23T08:45:00.075Z,12.06
2023-10-23T08:50:00.069Z,11.94
2023-10-23T08:55:00.153Z,11.94
2023-10-23T09:00:00.087Z,12.31
2023-10-23T09:05:00.165Z,12.88
2023-10-23T09:10:00.113Z,13.31
2023-10-23T09:15:00.062Z,13.56
2023-10-23T09:20:00.130Z,13.56
2023-10-23T09:25:00.081Z,13.56
2023-10-23T09:30:00.082Z,13.5
2023-10-23T09:35:00.096Z,13.56
2023-10-23T09:40:00.356Z,13.75
2023-10-23T09:45:00.170Z,14.06
2023-10-23T09:50:00.150Z,14.06
2023-10-23T09:55:00.098Z,13.81
2023-10-23T10:00:00.150Z,14
2023-10-23T10:05:00.089Z,14.44
2023-10-23T10:10:00.114Z,14.13
2023-10-23T10:15:01.085Z,13.88
2023-10-23T10:20:00.107Z,13.56
2023-10-23T10:25:00.094Z,13.38
2023-10-23T10:30:00.065Z,13.63
2023-10-23T10:35:00.229Z,14.44
2023-10-23T10:40:00.093Z,14.81
2023-10-23T10:45:00.069Z,15.31
2023-10-23T10:50:00.076Z,15.5
2023-10-23T10:55:00.079Z,15.25
2023-10-23T11:00:00.227Z,15.25
2023-10-23T11:05:00.060Z,15.38
2023-10-23T11:10:00.106Z,15.06
2023-10-23T11:15:00.063Z,15
2023-10-23T11:20:00.086Z,15.19
2023-10-23T11:25:00.090Z,15.25
2023-10-23T11:30:00.064Z,15.44
2023-10-23T11:35:00.068Z,15.31
2023-10-23T11:40:00.122Z,15.13
2023-10-23T11:45:00.071Z,15.19
2023-10-23T11:50:00.066Z,15.31
2023-10-23T11:55:00.095Z,15.56
2023-10-23T12:00:00.250Z,15.81
2023-10-23T12:05:00.152Z,15.44
2023-10-23T12:10:00.110Z,15.13
2023-10-23T12:15:00.068Z,15.44
2023-10-23T12:20:00.098Z,15.5
2023-10-23T12:25:00.084Z,15.63
2023-10-23T12:30:00.126Z,15.44
2023-10-23T12:35:00.168Z,15.25
2023-10-23T12:40:00.193Z,15.44
2023-10-23T12:45:00.105Z,15.75
2023-10-23T12:50:00.062Z,15.75
2023-10-23T12:55:00.161Z,15.81
2023-10-23T13:00:00.256Z,15.81
2023-10-23T13:05:00.156Z,15.56
2023-10-23T13:10:00.101Z,15.44
2023-10-23T13:15:00.078Z,15.5
2023-10-23T13:20:51.993Z,15.56
2023-10-23T13:25:00.133Z,15.69
2023-10-23T13:30:00.069Z,15.69
2023-10-23T13:35:00.071Z,15.69
2023-10-23T13:40:00.165Z,15.56
2023-10-23T13:45:00.070Z,15.38
2023-10-23T13:50:00.091Z,15.31
2023-10-23T13:55:00.070Z,15.31
2023-10-23T14:00:00.090Z,15.25
2023-10-23T14:05:00.121Z,15.19
2023-10-23T14:10:00.077Z,15.06
2023-10-23T14:15:01.093Z,14.94
2023-10-23T14:20:00.225Z,14.94
2023-10-23T14:25:00.090Z,14.88
2023-10-23T14:30:00.078Z,14.75
2023-10-23T14:35:00.074Z,14.63
2023-10-23T14:40:00.129Z,14.31
2023-10-23T14:45:00.095Z,14.25
2023-10-23T14:50:01.086Z,14.13
2023-10-23T14:55:00.075Z,14.06
2023-10-23T15:00:00.148Z,14
2023-10-23T15:05:00.097Z,13.88
2023-10-23T15:10:00.118Z,13.75
2023-10-23T15:15:00.076Z,13.63
2023-10-23T15:20:00.128Z,13.5
2023-10-23T15:25:00.097Z,13.44
2023-10-23T15:30:00.081Z,13.31
2023-10-23T15:35:00.094Z,13.13
2023-10-23T15:40:00.149Z,13
2023-10-23T15:45:00.086Z,12.81
2023-10-23T15:50:00.080Z,12.56
2023-10-23T15:55:00.100Z,12.5
2023-10-23T16:00:00.116Z,12.38
2023-10-23T16:05:00.088Z,12.25
2023-10-23T16:10:00.120Z,12.19
2023-10-23T16:15:00.306Z,12.06
2023-10-23T16:20:00.119Z,12
2023-10-23T16:25:00.134Z,12
2023-10-23T16:30:00.109Z,12.06
2023-10-23T16:35:00.102Z,12.06
2023-10-23T16:40:00.175Z,12.06
2023-10-23T16:45:00.252Z,11.94
2023-10-23T16:50:00.090Z,11.94
2023-10-23T16:55:00.134Z,11.81
2023-10-23T17:00:00.123Z,11.81
2023-10-23T17:05:00.108Z,11.81
2023-10-23T17:10:00.163Z,11.81
2023-10-23T17:15:00.097Z,11.81
2023-10-23T17:20:00.111Z,11.88
2023-10-23T17:25:00.145Z,11.94
2023-10-23T17:30:00.091Z,11.88
2023-10-23T17:35:00.100Z,11.88
2023-10-23T17:40:00.178Z,11.88
2023-10-23T17:45:00.085Z,11.94
2023-10-23T17:50:00.090Z,12
2023-10-23T17:55:00.206Z,11.94
2023-10-23T18:00:00.111Z,11.94
2023-10-23T18:05:00.071Z,12
2023-10-23T18:10:00.099Z,12.06
2023-10-23T18:15:00.104Z,12.13
2023-10-23T18:20:00.096Z,12.06
2023-10-23T18:25:00.109Z,12.06
2023-10-23T18:30:00.090Z,12.13
2023-10-23T18:35:00.081Z,12.13
2023-10-23T18:40:00.198Z,12.13
2023-10-23T18:45:00.195Z,12.13
2023-10-23T18:50:00.068Z,12.06
2023-10-23T18:55:00.089Z,12.06
2023-10-23T19:00:00.101Z,12.06
2023-10-23T19:05:00.067Z,12
2023-10-23T19:10:01.100Z,11.94
2023-10-23T19:15:00.066Z,11.94
2023-10-23T19:20:00.106Z,12
2023-10-23T19:25:01.124Z,12
2023-10-23T19:30:00.089Z,12
2023-10-23T19:35:00.091Z,12.06
2023-10-23T19:40:00.167Z,12
2023-10-23T19:45:00.083Z,12
2023-10-23T19:50:00.090Z,12
2023-10-23T19:55:04.675Z,12
2023-10-23T20:00:00.146Z,11.94
2023-10-23T20:05:00.177Z,11.94
2023-10-23T20:10:00.144Z,11.94
2023-10-23T20:15:00.113Z,11.94
2023-10-23T20:20:00.174Z,11.94
2023-10-23T20:25:00.160Z,12
2023-10-23T20:30:00.144Z,11.94
2023-10-23T20:35:00.122Z,11.88
2023-10-23T20:40:00.248Z,11.88
2023-10-23T20:45:00.112Z,11.88
2023-10-23T20:50:00.092Z,11.81
2023-10-23T20:55:00.158Z,11.75
2023-10-23T21:00:00.114Z,11.69
2023-10-23T21:05:00.070Z,11.69
2023-10-23T21:10:00.080Z,11.63
2023-10-23T21:15:00.063Z,11.63
2023-10-23T21:20:00.149Z,11.56
2023-10-23T21:25:00.082Z,11.5
2023-10-23T21:30:00.089Z,11.44
2023-10-23T21:35:00.086Z,11.44
2023-10-23T21:40:00.129Z,11.5
2023-10-23T21:45:00.088Z,11.5
2023-10-23T21:50:00.175Z,11.5
2023-10-23T21:55:02.809Z,11.44
2023-10-23T22:00:00.137Z,11.44
2023-10-23T22:05:00.073Z,11.44
2023-10-23T22:10:00.083Z,11.44
2023-10-23T22:15:00.092Z,11.44
2023-10-23T22:20:00.134Z,11.5
2023-10-23T22:25:00.078Z,11.5
2023-10-23T22:30:00.078Z,11.44
2023-10-23T22:35:00.079Z,11.44
2023-10-23T22:40:00.122Z,11.5
2023-10-23T22:45:00.122Z,11.5
2023-10-23T22:50:00.148Z,11.56
2023-10-23T22:55:00.202Z,11.56
2023-10-23T23:00:00.120Z,11.56
2023-10-23T23:05:00.111Z,11.56
2023-10-23T23:10:00.091Z,11.56
2023-10-23T23:15:00.094Z,11.56
2023-10-23T23:20:00.113Z,11.5
2023-10-23T23:25:00.105Z,11.5
2023-10-23T23:30:00.108Z,11.56
2023-10-23T23:35:00.086Z,11.56
2023-10-23T23:40:00.136Z,11.56
2023-10-23T23:45:00.090Z,11.56
2023-10-23T23:50:00.086Z,11.56
2023-10-23T23:55:00.089Z,11.56
